sensor_id;sensor_type;location;lat;lon;timestamp;temperature;humidity
52245;DHT22;55759;51.586;-1.758;2023-08-24T00:01:12;18.70;86.20
52245;DHT22;55759;51.586;-1.758;2023-08-24T00:03:38;18.70;85.10
52245;DHT22;55759;51.586;-1.758;2023-08-24T00:06:04;18.70;85.00
52245;DHT22;55759;51.586;-1.758;2023-08-24T00:08:30;18.60;85.40
52245;DHT22;55759;51.586;-1.758;2023-08-24T00:10:55;18.60;86.00
52245;DHT22;55759;51.586;-1.758;2023-08-24T00:13:21;18.60;85.50
52245;DHT22;55759;51.586;-1.758;2023-08-24T00:15:46;18.60;86.10
52245;DHT22;55759;51.586;-1.758;2023-08-24T00:18:12;18.50;85.50
52245;DHT22;55759;51.586;-1.758;2023-08-24T00:20:37;18.50;85.60
52245;DHT22;55759;51.586;-1.758;2023-08-24T00:23:03;18.40;86.20
52245;DHT22;55759;51.586;-1.758;2023-08-24T00:25:29;18.40;86.70
52245;DHT22;55759;51.586;-1.758;2023-08-24T00:27:55;18.30;87.00
52245;DHT22;55759;51.586;-1.758;2023-08-24T00:30:21;18.30;87.10
52245;DHT22;55759;51.586;-1.758;2023-08-24T00:32:47;18.30;87.40
52245;DHT22;55759;51.586;-1.758;2023-08-24T00:35:12;18.20;87.30
52245;DHT22;55759;51.586;-1.758;2023-08-24T00:37:38;18.20;87.50
52245;DHT22;55759;51.586;-1.758;2023-08-24T00:40:04;18.10;87.60
52245;DHT22;55759;51.586;-1.758;2023-08-24T00:42:38;18.10;87.70
52245;DHT22;55759;51.586;-1.758;2023-08-24T00:45:04;18.10;87.90
52245;DHT22;55759;51.586;-1.758;2023-08-24T00:47:30;18.10;87.80
52245;DHT22;55759;51.586;-1.758;2023-08-24T00:49:56;18.00;87.70
52245;DHT22;55759;51.586;-1.758;2023-08-24T00:52:21;18.00;87.80
52245;DHT22;55759;51.586;-1.758;2023-08-24T00:54:47;18.00;87.80
52245;DHT22;55759;51.586;-1.758;2023-08-24T00:57:13;18.00;88.20
52245;DHT22;55759;51.586;-1.758;2023-08-24T00:59:38;18.00;88.60
52245;DHT22;55759;51.586;-1.758;2023-08-24T01:02:04;18.00;88.60
52245;DHT22;55759;51.586;-1.758;2023-08-24T01:04:30;18.00;88.50
52245;DHT22;55759;51.586;-1.758;2023-08-24T01:06:55;18.10;88.40
52245;DHT22;55759;51.586;-1.758;2023-08-24T01:09:21;18.10;88.30
52245;DHT22;55759;51.586;-1.758;2023-08-24T01:16:39;18.10;88.70
52245;DHT22;55759;51.586;-1.758;2023-08-24T01:19:06;18.10;87.40
52245;DHT22;55759;51.586;-1.758;2023-08-24T01:21:32;18.10;85.90
52245;DHT22;55759;51.586;-1.758;2023-08-24T01:26:42;18.20;86.60
52245;DHT22;55759;51.586;-1.758;2023-08-24T01:29:09;18.20;86.70
52245;DHT22;55759;51.586;-1.758;2023-08-24T01:31:35;18.20;87.00
52245;DHT22;55759;51.586;-1.758;2023-08-24T01:34:00;18.20;87.30
52245;DHT22;55759;51.586;-1.758;2023-08-24T01:36:26;18.20;87.30
52245;DHT22;55759;51.586;-1.758;2023-08-24T01:41:44;18.30;86.50
52245;DHT22;55759;51.586;-1.758;2023-08-24T01:44:13;18.30;86.80
52245;DHT22;55759;51.586;-1.758;2023-08-24T01:46:39;18.30;86.80
52245;DHT22;55759;51.586;-1.758;2023-08-24T01:49:07;18.30;86.80
52245;DHT22;55759;51.586;-1.758;2023-08-24T01:51:33;18.30;86.80
52245;DHT22;55759;51.586;-1.758;2023-08-24T01:54:00;18.30;86.40
52245;DHT22;55759;51.586;-1.758;2023-08-24T01:56:25;18.30;86.70
52245;DHT22;55759;51.586;-1.758;2023-08-24T01:58:51;18.30;86.70
52245;DHT22;55759;51.586;-1.758;2023-08-24T02:01:17;18.20;87.00
52245;DHT22;55759;51.586;-1.758;2023-08-24T02:03:42;18.20;86.60
52245;DHT22;55759;51.586;-1.758;2023-08-24T02:06:08;18.20;86.80
52245;DHT22;55759;51.586;-1.758;2023-08-24T02:08:33;18.10;87.10
52245;DHT22;55759;51.586;-1.758;2023-08-24T02:10:59;18.10;87.30
52245;DHT22;55759;51.586;-1.758;2023-08-24T02:13:25;18.10;87.40
52245;DHT22;55759;51.586;-1.758;2023-08-24T02:15:50;18.10;87.50
52245;DHT22;55759;51.586;-1.758;2023-08-24T02:18:16;18.10;87.30
52245;DHT22;55759;51.586;-1.758;2023-08-24T02:20:41;18.10;86.90
52245;DHT22;55759;51.586;-1.758;2023-08-24T02:23:07;18.10;86.90
52245;DHT22;55759;51.586;-1.758;2023-08-24T02:25:32;18.10;86.80
52245;DHT22;55759;51.586;-1.758;2023-08-24T02:28:01;18.10;86.70
52245;DHT22;55759;51.586;-1.758;2023-08-24T02:30:26;18.20;86.60
52245;DHT22;55759;51.586;-1.758;2023-08-24T02:32:52;18.20;86.90
52245;DHT22;55759;51.586;-1.758;2023-08-24T02:35:17;18.10;87.50
52245;DHT22;55759;51.586;-1.758;2023-08-24T02:37:46;18.10;87.70
52245;DHT22;55759;51.586;-1.758;2023-08-24T02:40:11;18.10;86.90
52245;DHT22;55759;51.586;-1.758;2023-08-24T02:42:37;18.10;87.10
52245;DHT22;55759;51.586;-1.758;2023-08-24T02:45:03;18.10;86.90
52245;DHT22;55759;51.586;-1.758;2023-08-24T02:47:29;18.10;86.70
52245;DHT22;55759;51.586;-1.758;2023-08-24T02:49:55;18.10;86.50
52245;DHT22;55759;51.586;-1.758;2023-08-24T02:52:20;18.10;86.90
52245;DHT22;55759;51.586;-1.758;2023-08-24T02:54:46;18.00;87.40
52245;DHT22;55759;51.586;-1.758;2023-08-24T02:57:11;17.90;88.00
52245;DHT22;55759;51.586;-1.758;2023-08-24T02:59:37;17.80;87.40
52245;DHT22;55759;51.586;-1.758;2023-08-24T03:02:02;17.70;87.00
52245;DHT22;55759;51.586;-1.758;2023-08-24T03:04:28;17.70;86.90
52245;DHT22;55759;51.586;-1.758;2023-08-24T03:06:54;17.70;87.30
52245;DHT22;55759;51.586;-1.758;2023-08-24T03:09:19;17.60;87.90
52245;DHT22;55759;51.586;-1.758;2023-08-24T03:11:45;17.60;88.40
52245;DHT22;55759;51.586;-1.758;2023-08-24T03:14:11;17.50;88.40
52245;DHT22;55759;51.586;-1.758;2023-08-24T03:16:39;17.50;88.60
52245;DHT22;55759;51.586;-1.758;2023-08-24T03:19:05;17.40;88.60
52245;DHT22;55759;51.586;-1.758;2023-08-24T03:21:30;17.40;88.80
52245;DHT22;55759;51.586;-1.758;2023-08-24T03:23:56;17.40;89.10
52245;DHT22;55759;51.586;-1.758;2023-08-24T03:26:22;17.40;89.00
52245;DHT22;55759;51.586;-1.758;2023-08-24T03:28:49;17.40;89.00
52245;DHT22;55759;51.586;-1.758;2023-08-24T03:31:14;17.40;89.20
52245;DHT22;55759;51.586;-1.758;2023-08-24T03:33:40;17.40;88.80
52245;DHT22;55759;51.586;-1.758;2023-08-24T03:36:06;17.40;88.60
52245;DHT22;55759;51.586;-1.758;2023-08-24T03:38:31;17.40;88.70
52245;DHT22;55759;51.586;-1.758;2023-08-24T03:41:01;17.40;88.90
52245;DHT22;55759;51.586;-1.758;2023-08-24T03:43:26;17.40;89.00
52245;DHT22;55759;51.586;-1.758;2023-08-24T03:45:52;17.40;89.00
52245;DHT22;55759;51.586;-1.758;2023-08-24T03:48:18;17.40;88.70
52245;DHT22;55759;51.586;-1.758;2023-08-24T03:50:43;17.40;88.90
52245;DHT22;55759;51.586;-1.758;2023-08-24T03:53:09;17.40;88.60
52245;DHT22;55759;51.586;-1.758;2023-08-24T03:55:34;17.50;88.10
52245;DHT22;55759;51.586;-1.758;2023-08-24T03:58:00;17.50;88.30
52245;DHT22;55759;51.586;-1.758;2023-08-24T04:00:25;17.40;88.50
52245;DHT22;55759;51.586;-1.758;2023-08-24T04:02:51;17.40;88.40
52245;DHT22;55759;51.586;-1.758;2023-08-24T04:05:17;17.30;88.60
52245;DHT22;55759;51.586;-1.758;2023-08-24T04:07:43;17.20;88.80
52245;DHT22;55759;51.586;-1.758;2023-08-24T04:10:08;17.20;89.00
52245;DHT22;55759;51.586;-1.758;2023-08-24T04:12:34;17.10;89.00
52245;DHT22;55759;51.586;-1.758;2023-08-24T04:15:00;17.10;89.20
52245;DHT22;55759;51.586;-1.758;2023-08-24T04:17:26;17.10;89.20
52245;DHT22;55759;51.586;-1.758;2023-08-24T04:19:51;17.10;89.20
52245;DHT22;55759;51.586;-1.758;2023-08-24T04:22:17;17.00;89.40
52245;DHT22;55759;51.586;-1.758;2023-08-24T04:24:43;17.10;89.40
52245;DHT22;55759;51.586;-1.758;2023-08-24T04:27:09;17.00;89.50
52245;DHT22;55759;51.586;-1.758;2023-08-24T04:29:34;17.00;89.70
52245;DHT22;55759;51.586;-1.758;2023-08-24T04:32:00;17.00;89.80
52245;DHT22;55759;51.586;-1.758;2023-08-24T04:34:25;17.10;89.80
52245;DHT22;55759;51.586;-1.758;2023-08-24T04:36:51;17.10;89.70
52245;DHT22;55759;51.586;-1.758;2023-08-24T04:39:17;17.10;89.60
52245;DHT22;55759;51.586;-1.758;2023-08-24T04:41:44;17.20;89.40
52245;DHT22;55759;51.586;-1.758;2023-08-24T04:44:09;17.20;89.10
52245;DHT22;55759;51.586;-1.758;2023-08-24T04:46:35;17.20;89.10
52245;DHT22;55759;51.586;-1.758;2023-08-24T04:49:00;17.20;89.20
52245;DHT22;55759;51.586;-1.758;2023-08-24T04:51:26;17.20;89.30
52245;DHT22;55759;51.586;-1.758;2023-08-24T04:53:53;17.20;89.40
52245;DHT22;55759;51.586;-1.758;2023-08-24T04:56:19;17.20;89.40
52245;DHT22;55759;51.586;-1.758;2023-08-24T04:58:57;17.20;89.30
52245;DHT22;55759;51.586;-1.758;2023-08-24T05:01:25;17.20;89.00
52245;DHT22;55759;51.586;-1.758;2023-08-24T05:03:51;17.20;88.60
52245;DHT22;55759;51.586;-1.758;2023-08-24T05:06:17;17.20;88.20
52245;DHT22;55759;51.586;-1.758;2023-08-24T05:08:43;17.20;88.00
52245;DHT22;55759;51.586;-1.758;2023-08-24T05:11:12;17.30;87.80
52245;DHT22;55759;51.586;-1.758;2023-08-24T05:13:39;17.30;87.40
52245;DHT22;55759;51.586;-1.758;2023-08-24T05:16:05;17.30;86.90
52245;DHT22;55759;51.586;-1.758;2023-08-24T05:18:30;17.40;87.50
52245;DHT22;55759;51.586;-1.758;2023-08-24T05:20:56;17.30;88.00
52245;DHT22;55759;51.586;-1.758;2023-08-24T05:23:21;17.40;87.40
52245;DHT22;55759;51.586;-1.758;2023-08-24T05:25:47;17.40;87.80
52245;DHT22;55759;51.586;-1.758;2023-08-24T05:28:12;17.30;87.80
52245;DHT22;55759;51.586;-1.758;2023-08-24T05:30:38;17.30;88.30
52245;DHT22;55759;51.586;-1.758;2023-08-24T05:33:03;17.30;88.00
52245;DHT22;55759;51.586;-1.758;2023-08-24T05:35:29;17.30;87.70
52245;DHT22;55759;51.586;-1.758;2023-08-24T05:37:55;17.30;88.10
52245;DHT22;55759;51.586;-1.758;2023-08-24T05:40:20;17.30;88.10
52245;DHT22;55759;51.586;-1.758;2023-08-24T05:42:46;17.30;88.30
52245;DHT22;55759;51.586;-1.758;2023-08-24T05:45:11;17.20;87.70
52245;DHT22;55759;51.586;-1.758;2023-08-24T05:47:37;17.20;87.50
52245;DHT22;55759;51.586;-1.758;2023-08-24T05:50:03;17.20;87.70
52245;DHT22;55759;51.586;-1.758;2023-08-24T05:52:28;17.20;87.50
52245;DHT22;55759;51.586;-1.758;2023-08-24T05:54:54;17.20;87.50
52245;DHT22;55759;51.586;-1.758;2023-08-24T05:57:20;17.20;88.00
52245;DHT22;55759;51.586;-1.758;2023-08-24T05:59:45;17.30;87.40
52245;DHT22;55759;51.586;-1.758;2023-08-24T06:02:11;17.20;88.00
52245;DHT22;55759;51.586;-1.758;2023-08-24T06:04:36;17.30;87.80
52245;DHT22;55759;51.586;-1.758;2023-08-24T06:07:02;17.30;87.90
52245;DHT22;55759;51.586;-1.758;2023-08-24T06:09:30;17.30;87.80
52245;DHT22;55759;51.586;-1.758;2023-08-24T06:11:55;17.30;87.60
52245;DHT22;55759;51.586;-1.758;2023-08-24T06:14:21;17.30;87.50
52245;DHT22;55759;51.586;-1.758;2023-08-24T06:16:46;17.30;87.90
52245;DHT22;55759;51.586;-1.758;2023-08-24T06:19:13;17.30;88.20
52245;DHT22;55759;51.586;-1.758;2023-08-24T06:21:39;17.30;88.10
52245;DHT22;55759;51.586;-1.758;2023-08-24T06:24:05;17.40;87.50
52245;DHT22;55759;51.586;-1.758;2023-08-24T06:26:30;17.40;87.40
52245;DHT22;55759;51.586;-1.758;2023-08-24T06:28:56;17.40;87.70
52245;DHT22;55759;51.586;-1.758;2023-08-24T06:31:21;17.50;87.70
52245;DHT22;55759;51.586;-1.758;2023-08-24T06:33:48;17.50;87.80
52245;DHT22;55759;51.586;-1.758;2023-08-24T06:36:14;17.60;87.60
52245;DHT22;55759;51.586;-1.758;2023-08-24T06:38:39;17.70;87.60
52245;DHT22;55759;51.586;-1.758;2023-08-24T06:41:05;17.70;86.80
52245;DHT22;55759;51.586;-1.758;2023-08-24T06:43:30;17.80;85.90
52245;DHT22;55759;51.586;-1.758;2023-08-24T06:45:56;17.90;85.40
52245;DHT22;55759;51.586;-1.758;2023-08-24T06:48:21;17.90;85.70
52245;DHT22;55759;51.586;-1.758;2023-08-24T06:50:47;18.00;85.90
52245;DHT22;55759;51.586;-1.758;2023-08-24T06:53:13;18.00;85.30
52245;DHT22;55759;51.586;-1.758;2023-08-24T06:55:40;18.10;84.90
52245;DHT22;55759;51.586;-1.758;2023-08-24T06:58:06;18.20;84.40
52245;DHT22;55759;51.586;-1.758;2023-08-24T07:00:31;18.30;83.90
52245;DHT22;55759;51.586;-1.758;2023-08-24T07:02:57;18.50;83.60
52245;DHT22;55759;51.586;-1.758;2023-08-24T07:05:23;18.60;83.80
52245;DHT22;55759;51.586;-1.758;2023-08-24T07:07:51;18.60;83.50
52245;DHT22;55759;51.586;-1.758;2023-08-24T07:10:17;18.60;82.70
52245;DHT22;55759;51.586;-1.758;2023-08-24T07:12:43;18.70;83.10
52245;DHT22;55759;51.586;-1.758;2023-08-24T07:15:10;18.80;83.40
52245;DHT22;55759;51.586;-1.758;2023-08-24T07:17:36;18.90;82.70
52245;DHT22;55759;51.586;-1.758;2023-08-24T07:20:02;19.10;82.50
52245;DHT22;55759;51.586;-1.758;2023-08-24T07:22:30;19.10;82.30
52245;DHT22;55759;51.586;-1.758;2023-08-24T07:24:56;19.10;81.70
52245;DHT22;55759;51.586;-1.758;2023-08-24T07:27:21;19.20;81.70
52245;DHT22;55759;51.586;-1.758;2023-08-24T07:29:47;19.30;81.60
52245;DHT22;55759;51.586;-1.758;2023-08-24T07:32:12;19.40;81.80
52245;DHT22;55759;51.586;-1.758;2023-08-24T07:34:38;19.60;81.70
52245;DHT22;55759;51.586;-1.758;2023-08-24T07:37:04;19.80;81.30
52245;DHT22;55759;51.586;-1.758;2023-08-24T07:39:29;19.90;79.10
52245;DHT22;55759;51.586;-1.758;2023-08-24T07:41:55;20.10;78.90
52245;DHT22;55759;51.586;-1.758;2023-08-24T07:44:20;20.20;77.50
52245;DHT22;55759;51.586;-1.758;2023-08-24T07:46:49;20.30;76.00
52245;DHT22;55759;51.586;-1.758;2023-08-24T07:49:14;20.40;76.80
52245;DHT22;55759;51.586;-1.758;2023-08-24T07:51:40;20.60;76.40
52245;DHT22;55759;51.586;-1.758;2023-08-24T07:54:08;20.70;76.50
52245;DHT22;55759;51.586;-1.758;2023-08-24T07:56:33;20.70;75.80
52245;DHT22;55759;51.586;-1.758;2023-08-24T07:58:59;20.70;76.70
52245;DHT22;55759;51.586;-1.758;2023-08-24T08:01:25;20.90;76.80
52245;DHT22;55759;51.586;-1.758;2023-08-24T08:03:50;20.90;76.10
52245;DHT22;55759;51.586;-1.758;2023-08-24T08:06:16;20.90;75.00
52245;DHT22;55759;51.586;-1.758;2023-08-24T08:08:41;21.00;76.10
52245;DHT22;55759;51.586;-1.758;2023-08-24T08:11:07;21.10;73.30
52245;DHT22;55759;51.586;-1.758;2023-08-24T08:13:32;21.10;72.00
52245;DHT22;55759;51.586;-1.758;2023-08-24T08:16:04;21.10;73.80
52245;DHT22;55759;51.586;-1.758;2023-08-24T08:18:29;21.20;73.00
52245;DHT22;55759;51.586;-1.758;2023-08-24T08:20:55;21.20;74.20
52245;DHT22;55759;51.586;-1.758;2023-08-24T08:23:21;21.30;74.30
52245;DHT22;55759;51.586;-1.758;2023-08-24T08:25:46;21.40;72.30
52245;DHT22;55759;51.586;-1.758;2023-08-24T08:28:12;21.60;74.80
52245;DHT22;55759;51.586;-1.758;2023-08-24T08:30:37;21.90;74.60
52245;DHT22;55759;51.586;-1.758;2023-08-24T08:33:03;22.10;70.30
52245;DHT22;55759;51.586;-1.758;2023-08-24T08:35:29;22.30;70.20
52245;DHT22;55759;51.586;-1.758;2023-08-24T08:37:54;22.40;71.40
52245;DHT22;55759;51.586;-1.758;2023-08-24T08:40:20;22.30;70.60
52245;DHT22;55759;51.586;-1.758;2023-08-24T08:42:45;22.10;71.60
52245;DHT22;55759;51.586;-1.758;2023-08-24T08:45:11;21.90;74.10
52245;DHT22;55759;51.586;-1.758;2023-08-24T08:47:37;21.70;73.70
52245;DHT22;55759;51.586;-1.758;2023-08-24T08:50:03;21.70;75.90
52245;DHT22;55759;51.586;-1.758;2023-08-24T08:52:29;21.90;75.70
52245;DHT22;55759;51.586;-1.758;2023-08-24T08:54:55;22.40;74.00
52245;DHT22;55759;51.586;-1.758;2023-08-24T08:57:21;22.70;73.80
52245;DHT22;55759;51.586;-1.758;2023-08-24T08:59:48;22.80;70.10
52245;DHT22;55759;51.586;-1.758;2023-08-24T09:02:16;22.70;72.70
52245;DHT22;55759;51.586;-1.758;2023-08-24T09:04:43;22.60;72.70
52245;DHT22;55759;51.586;-1.758;2023-08-24T09:07:10;22.60;73.10
52245;DHT22;55759;51.586;-1.758;2023-08-24T09:09:37;22.60;71.30
52245;DHT22;55759;51.586;-1.758;2023-08-24T09:12:04;22.60;71.80
52245;DHT22;55759;51.586;-1.758;2023-08-24T09:14:30;22.70;73.80
52245;DHT22;55759;51.586;-1.758;2023-08-24T09:16:56;22.70;72.00
52245;DHT22;55759;51.586;-1.758;2023-08-24T09:19:27;22.60;71.00
52245;DHT22;55759;51.586;-1.758;2023-08-24T09:21:54;22.60;72.30
52245;DHT22;55759;51.586;-1.758;2023-08-24T09:24:28;22.60;71.90
52245;DHT22;55759;51.586;-1.758;2023-08-24T09:26:54;22.60;73.20
52245;DHT22;55759;51.586;-1.758;2023-08-24T09:29:20;22.70;73.20
52245;DHT22;55759;51.586;-1.758;2023-08-24T09:31:46;22.80;73.20
52245;DHT22;55759;51.586;-1.758;2023-08-24T09:34:12;23.00;67.70
52245;DHT22;55759;51.586;-1.758;2023-08-24T09:36:38;23.30;70.90
52245;DHT22;55759;51.586;-1.758;2023-08-24T09:39:04;23.30;68.80
52245;DHT22;55759;51.586;-1.758;2023-08-24T09:41:37;23.40;70.40
52245;DHT22;55759;51.586;-1.758;2023-08-24T09:44:03;23.50;68.90
52245;DHT22;55759;51.586;-1.758;2023-08-24T09:46:29;23.80;65.90
52245;DHT22;55759;51.586;-1.758;2023-08-24T09:48:54;24.10;66.50
52245;DHT22;55759;51.586;-1.758;2023-08-24T09:51:22;24.40;65.00
52245;DHT22;55759;51.586;-1.758;2023-08-24T09:53:48;24.60;62.90
52245;DHT22;55759;51.586;-1.758;2023-08-24T09:56:13;24.70;62.70
52245;DHT22;55759;51.586;-1.758;2023-08-24T09:58:39;24.90;63.90
52245;DHT22;55759;51.586;-1.758;2023-08-24T10:01:06;25.30;67.10
52245;DHT22;55759;51.586;-1.758;2023-08-24T10:03:32;25.70;61.70
52245;DHT22;55759;51.586;-1.758;2023-08-24T10:05:58;26.00;62.30
52245;DHT22;55759;51.586;-1.758;2023-08-24T10:08:26;26.30;61.40
52245;DHT22;55759;51.586;-1.758;2023-08-24T10:10:55;26.60;57.10
52245;DHT22;55759;51.586;-1.758;2023-08-24T10:15:55;27.30;61.20
52245;DHT22;55759;51.586;-1.758;2023-08-24T10:18:21;27.50;55.30
52245;DHT22;55759;51.586;-1.758;2023-08-24T10:20:49;27.60;52.60
52245;DHT22;55759;51.586;-1.758;2023-08-24T10:23:15;27.40;53.10
52245;DHT22;55759;51.586;-1.758;2023-08-24T10:25:41;27.20;55.60
52245;DHT22;55759;51.586;-1.758;2023-08-24T10:28:07;27.00;53.00
52245;DHT22;55759;51.586;-1.758;2023-08-24T10:30:34;26.70;55.40
52245;DHT22;55759;51.586;-1.758;2023-08-24T10:33:00;26.60;57.60
52245;DHT22;55759;51.586;-1.758;2023-08-24T10:35:26;26.50;57.10
52245;DHT22;55759;51.586;-1.758;2023-08-24T10:37:52;26.50;57.10
52245;DHT22;55759;51.586;-1.758;2023-08-24T10:40:31;26.60;58.20
52245;DHT22;55759;51.586;-1.758;2023-08-24T10:42:56;26.60;59.40
52245;DHT22;55759;51.586;-1.758;2023-08-24T10:45:22;26.60;58.30
52245;DHT22;55759;51.586;-1.758;2023-08-24T10:47:48;26.60;54.70
52245;DHT22;55759;51.586;-1.758;2023-08-24T10:50:16;26.50;55.60
52245;DHT22;55759;51.586;-1.758;2023-08-24T10:52:43;26.60;57.80
52245;DHT22;55759;51.586;-1.758;2023-08-24T10:55:21;26.80;54.10
52245;DHT22;55759;51.586;-1.758;2023-08-24T10:57:55;26.90;54.00
52245;DHT22;55759;51.586;-1.758;2023-08-24T11:00:21;27.10;53.50
52245;DHT22;55759;51.586;-1.758;2023-08-24T11:02:51;27.60;54.10
52245;DHT22;55759;51.586;-1.758;2023-08-24T11:05:23;28.10;50.80
52245;DHT22;55759;51.586;-1.758;2023-08-24T11:07:59;28.20;47.50
52245;DHT22;55759;51.586;-1.758;2023-08-24T11:10:36;28.30;48.40
52245;DHT22;55759;51.586;-1.758;2023-08-24T11:13:12;28.10;49.70
52245;DHT22;55759;51.586;-1.758;2023-08-24T11:15:39;27.70;49.60
52245;DHT22;55759;51.586;-1.758;2023-08-24T11:18:12;27.70;50.60
52245;DHT22;55759;51.586;-1.758;2023-08-24T11:20:38;27.70;50.80
52245;DHT22;55759;51.586;-1.758;2023-08-24T11:23:05;28.10;50.90
52245;DHT22;55759;51.586;-1.758;2023-08-24T11:25:30;28.60;49.10
52245;DHT22;55759;51.586;-1.758;2023-08-24T11:27:58;29.60;49.70
52245;DHT22;55759;51.586;-1.758;2023-08-24T11:30:28;30.40;43.30
52245;DHT22;55759;51.586;-1.758;2023-08-24T11:33:03;30.60;43.80
52245;DHT22;55759;51.586;-1.758;2023-08-24T11:35:29;30.90;41.90
52245;DHT22;55759;51.586;-1.758;2023-08-24T11:37:55;31.80;42.70
52245;DHT22;55759;51.586;-1.758;2023-08-24T11:40:21;33.00;38.90
52245;DHT22;55759;51.586;-1.758;2023-08-24T11:42:55;33.60;40.40
52245;DHT22;55759;51.586;-1.758;2023-08-24T11:45:32;34.70;39.50
52245;DHT22;55759;51.586;-1.758;2023-08-24T11:48:02;36.10;37.10
52245;DHT22;55759;51.586;-1.758;2023-08-24T11:50:29;37.10;34.90
52245;DHT22;55759;51.586;-1.758;2023-08-24T11:52:55;37.90;31.70
52245;DHT22;55759;51.586;-1.758;2023-08-24T11:55:24;38.90;28.90
52245;DHT22;55759;51.586;-1.758;2023-08-24T11:57:50;39.50;31.20
52245;DHT22;55759;51.586;-1.758;2023-08-24T12:00:17;40.10;29.30
52245;DHT22;55759;51.586;-1.758;2023-08-24T12:02:43;40.40;27.90
52245;DHT22;55759;51.586;-1.758;2023-08-24T12:05:20;40.80;29.80
52245;DHT22;55759;51.586;-1.758;2023-08-24T12:07:45;41.30;30.00
52245;DHT22;55759;51.586;-1.758;2023-08-24T12:10:12;42.20;25.10
52245;DHT22;55759;51.586;-1.758;2023-08-24T12:12:40;42.90;24.30
52245;DHT22;55759;51.586;-1.758;2023-08-24T12:15:06;43.40;26.20
52245;DHT22;55759;51.586;-1.758;2023-08-24T12:17:41;43.60;23.80
52245;DHT22;55759;51.586;-1.758;2023-08-24T12:20:07;43.20;25.60
52245;DHT22;55759;51.586;-1.758;2023-08-24T12:22:38;42.60;25.20
52245;DHT22;55759;51.586;-1.758;2023-08-24T12:25:03;43.00;25.80
52245;DHT22;55759;51.586;-1.758;2023-08-24T12:27:29;43.20;27.80
52245;DHT22;55759;51.586;-1.758;2023-08-24T12:29:59;42.70;26.50
52245;DHT22;55759;51.586;-1.758;2023-08-24T12:32:25;42.60;28.30
52245;DHT22;55759;51.586;-1.758;2023-08-24T12:34:55;43.00;24.10
52245;DHT22;55759;51.586;-1.758;2023-08-24T12:37:20;43.00;24.50
52245;DHT22;55759;51.586;-1.758;2023-08-24T12:39:46;42.70;23.60
52245;DHT22;55759;51.586;-1.758;2023-08-24T12:42:14;42.10;25.00
52245;DHT22;55759;51.586;-1.758;2023-08-24T12:44:39;42.40;23.60
52245;DHT22;55759;51.586;-1.758;2023-08-24T12:47:05;43.10;29.30
52245;DHT22;55759;51.586;-1.758;2023-08-24T12:49:30;43.90;23.60
52245;DHT22;55759;51.586;-1.758;2023-08-24T12:51:56;44.50;27.10
52245;DHT22;55759;51.586;-1.758;2023-08-24T12:54:21;45.60;26.50
52245;DHT22;55759;51.586;-1.758;2023-08-24T12:56:49;47.00;24.00
52245;DHT22;55759;51.586;-1.758;2023-08-24T12:59:15;48.20;22.50
52245;DHT22;55759;51.586;-1.758;2023-08-24T13:01:41;48.80;25.30
52245;DHT22;55759;51.586;-1.758;2023-08-24T13:04:07;49.30;22.60
52245;DHT22;55759;51.586;-1.758;2023-08-24T13:06:33;48.50;19.70
52245;DHT22;55759;51.586;-1.758;2023-08-24T13:08:59;47.20;20.50
52245;DHT22;55759;51.586;-1.758;2023-08-24T13:11:25;45.80;26.30
52245;DHT22;55759;51.586;-1.758;2023-08-24T13:13:51;44.00;26.70
52245;DHT22;55759;51.586;-1.758;2023-08-24T13:16:16;42.50;28.00
52245;DHT22;55759;51.586;-1.758;2023-08-24T13:18:42;41.00;27.30
52245;DHT22;55759;51.586;-1.758;2023-08-24T13:21:08;39.60;29.00
52245;DHT22;55759;51.586;-1.758;2023-08-24T13:23:33;37.80;31.30
52245;DHT22;55759;51.586;-1.758;2023-08-24T13:25:59;36.80;33.60
52245;DHT22;55759;51.586;-1.758;2023-08-24T13:28:24;36.10;35.50
52245;DHT22;55759;51.586;-1.758;2023-08-24T13:30:50;35.30;34.90
52245;DHT22;55759;51.586;-1.758;2023-08-24T13:33:16;34.80;33.80
52245;DHT22;55759;51.586;-1.758;2023-08-24T13:35:41;34.60;35.30
52245;DHT22;55759;51.586;-1.758;2023-08-24T13:38:07;34.20;33.10
52245;DHT22;55759;51.586;-1.758;2023-08-24T13:40:32;34.10;33.30
52245;DHT22;55759;51.586;-1.758;2023-08-24T13:42:58;34.20;32.50
52245;DHT22;55759;51.586;-1.758;2023-08-24T13:45:24;34.50;33.90
52245;DHT22;55759;51.586;-1.758;2023-08-24T13:47:50;35.70;35.40
52245;DHT22;55759;51.586;-1.758;2023-08-24T13:50:15;36.10;34.90
52245;DHT22;55759;51.586;-1.758;2023-08-24T13:52:41;36.10;32.10
52245;DHT22;55759;51.586;-1.758;2023-08-24T13:55:06;36.60;29.80
52245;DHT22;55759;51.586;-1.758;2023-08-24T13:57:32;37.10;28.70
52245;DHT22;55759;51.586;-1.758;2023-08-24T13:59:58;37.30;28.30
52245;DHT22;55759;51.586;-1.758;2023-08-24T14:02:25;38.10;31.40
52245;DHT22;55759;51.586;-1.758;2023-08-24T14:04:50;39.50;26.30
52245;DHT22;55759;51.586;-1.758;2023-08-24T14:07:16;40.80;25.10
52245;DHT22;55759;51.586;-1.758;2023-08-24T14:09:42;42.10;30.00
52245;DHT22;55759;51.586;-1.758;2023-08-24T14:12:07;43.50;31.30
52245;DHT22;55759;51.586;-1.758;2023-08-24T14:14:33;44.30;23.70
52245;DHT22;55759;51.586;-1.758;2023-08-24T14:16:58;45.10;20.80
52245;DHT22;55759;51.586;-1.758;2023-08-24T14:19:24;45.40;20.50
52245;DHT22;55759;51.586;-1.758;2023-08-24T14:21:50;46.00;20.20
52245;DHT22;55759;51.586;-1.758;2023-08-24T14:24:15;46.70;26.80
52245;DHT22;55759;51.586;-1.758;2023-08-24T14:26:42;47.10;25.40
52245;DHT22;55759;51.586;-1.758;2023-08-24T14:29:11;46.20;26.00
52245;DHT22;55759;51.586;-1.758;2023-08-24T14:31:37;46.00;19.80
52245;DHT22;55759;51.586;-1.758;2023-08-24T14:34:02;45.60;22.70
52245;DHT22;55759;51.586;-1.758;2023-08-24T14:36:28;46.10;21.00
52245;DHT22;55759;51.586;-1.758;2023-08-24T14:38:54;46.60;22.70
52245;DHT22;55759;51.586;-1.758;2023-08-24T14:41:20;46.70;19.90
52245;DHT22;55759;51.586;-1.758;2023-08-24T14:43:46;46.80;19.60
52245;DHT22;55759;51.586;-1.758;2023-08-24T14:46:11;47.10;24.10
52245;DHT22;55759;51.586;-1.758;2023-08-24T14:48:37;47.20;22.30
52245;DHT22;55759;51.586;-1.758;2023-08-24T14:51:02;46.80;22.30
52245;DHT22;55759;51.586;-1.758;2023-08-24T14:53:28;46.50;21.70
52245;DHT22;55759;51.586;-1.758;2023-08-24T14:55:55;46.20;24.60
52245;DHT22;55759;51.586;-1.758;2023-08-24T14:58:24;46.00;20.20
52245;DHT22;55759;51.586;-1.758;2023-08-24T15:00:51;44.40;24.80
52245;DHT22;55759;51.586;-1.758;2023-08-24T15:03:17;41.90;23.20
52245;DHT22;55759;51.586;-1.758;2023-08-24T15:05:44;41.50;29.00
52245;DHT22;55759;51.586;-1.758;2023-08-24T15:08:10;40.50;28.40
52245;DHT22;55759;51.586;-1.758;2023-08-24T15:10:37;39.40;35.60
52245;DHT22;55759;51.586;-1.758;2023-08-24T15:13:05;38.00;27.30
52245;DHT22;55759;51.586;-1.758;2023-08-24T15:15:34;36.40;32.40
52245;DHT22;55759;51.586;-1.758;2023-08-24T15:17:59;34.80;36.30
52245;DHT22;55759;51.586;-1.758;2023-08-24T15:20:25;33.70;33.70
52245;DHT22;55759;51.586;-1.758;2023-08-24T15:22:51;32.50;37.40